• Join FlightAware (Why Join?)
  • Login
  • US Flag 
03:10AM EDT


 

Airport Tracker/Info


-or-


 

Live Flight TrackerFlight Track Log ✈ THU880 ✈ 23-Aug-2013 ✈ CYOW - CYHF

Flight Track Log - Related Links

Times and Time Zones

All times are in EDT time to prevent confusion due to time zone crossing. See the THU880 flight status page for this flight to view local times or setup timezone preferences in your user account.

Time Position Orientation Groundspeed Altitude Reporting Facility
EDT Latitude Longitude Course Direction KTS MPH feet Rate Location/Type
02:02PM 45.3000 -75.6333 314° West 120 138 900  Level Montreal Center
02:03PM 45.7382 -75.9138 339° North  Level FlightAware Approximate
02:03PM 45.3333 -75.5833 47° Northeast 160 184 2,900  Level Montreal Center
02:04PM 45.8013 -75.9488 339° North  Level FlightAware Approximate
02:04PM 45.3500 -75.5333 65° Northeast 160 184 4,800  Level Montreal Center
02:05PM 45.8640 -75.9850 337° Northwest  Level FlightAware Approximate
02:05PM 45.4000 -75.5667 335° Northwest 170 196 6,500  Level Montreal Center
02:06PM 45.9228 -76.0289 306° West  Level FlightAware Approximate
02:06PM 45.4333 -75.5833 341° North 190 219 8,000  Level Montreal Center
02:07PM 45.9646 -76.1052 314° West  Level FlightAware Approximate
02:07PM 45.5000 -75.6333 332° Northwest 200 230 9,500  Level Montreal Center
02:08PM 45.5500 -75.6833 325° Northwest 210 242 11,000 1,500 Climbing Montreal Center
02:09PM 45.6000 -75.7333 325° Northwest 210 242 12,500 1,380 Climbing Montreal Center
02:10PM 45.6500 -75.7833 325° Northwest 220 253 13,800 1,320 Climbing Montreal Center
02:11PM 45.7167 -75.8167 341° North 220 253 15,200 1,260 Climbing Montreal Center
02:12PM 45.7667 -75.8667 325° Northwest 220 253 16,400 1,200 Climbing Montreal Center
02:13PM 45.8167 -75.9167 325° Northwest 220 253 17,700 1,080 Climbing Montreal Center
02:14PM 45.8667 -75.9667 325° Northwest 220 253 18,600 900 Climbing Montreal Center
02:15PM 45.9167 -76.0167 325° Northwest 220 253 19,600 660 Climbing Montreal Center
02:16PM 45.9667 -76.0833 317° Northwest 240 276 20,000 180 Climbing Montreal Center
02:17PM 46.0000 -76.1667 300° West 270 311 20,000  Level Montreal Center
02:18PM 46.0500 -76.2500 311° West 270 311 20,000  Level Montreal Center
02:19PM 46.1000 -76.3333 311° West 270 311 20,000  Level Montreal Center
02:20PM 46.1500 -76.4333 306° West 280 322 20,000  Level Montreal Center
02:21PM 46.2000 -76.5167 311° West 290 334 20,000  Level Montreal Center
02:22PM 46.2500 -76.6000 311° West 280 322 20,000  Level Montreal Center
02:23PM 46.3000 -76.7000 306° West 280 322 20,000  Level Montreal Center
02:24PM 46.3500 -76.7667 317° Northwest 280 322 20,000  Level Montreal Center
02:25PM 46.4000 -76.8667 306° West 280 322 20,000  Level Montreal Center
02:26PM 46.4500 -76.9667 306° West 280 322 20,000  Level Montreal Center
02:27PM 46.5000 -77.0333 317° Northwest 280 322 20,000  Level Montreal Center
02:28PM 46.5500 -77.1333 306° West 280 322 20,000  Level Montreal Center
02:29PM 46.5833 -77.2333 296° West 280 322 20,000  Level Montreal Center
02:30PM 46.6167 -77.3167 300° West 280 322 20,000  Level Montreal Center
02:31PM 46.6833 -77.4167 314° West 280 322 20,000  Level Montreal Center
02:32PM 46.7167 -77.4833 306° West 280 322 20,000  Level Montreal Center
02:33PM 46.7667 -77.5833 306° West 280 322 20,000  Level Montreal Center
02:34PM 46.8167 -77.6833 306° West 280 322 20,000  Level Montreal Center
02:35PM 46.8667 -77.7667 311° West 280 322 20,000  Level Montreal Center
02:36PM 46.9167 -77.8667 306° West 280 322 20,000  Level Montreal Center
02:37PM 46.9667 -77.9333 318° Northwest 280 322 20,000  Level Montreal Center
02:38PM 47.0167 -78.0333 306° West 280 322 20,000  Level Montreal Center
02:39PM 47.0667 -78.1333 306° West 280 322 20,000  Level Montreal Center
02:40PM 47.1167 -78.2167 311° West 280 322 20,000  Level Montreal Center
02:41PM 47.1667 -78.3167 306° West 280 322 20,000  Level Montreal Center
02:42PM 47.2167 -78.4167 306° West 280 322 20,000  Level Montreal Center
02:43PM 47.2500 -78.4833 306° West 280 322 20,000  Level Montreal Center
02:44PM 47.3000 -78.5833 306° West 280 322 20,000  Level Montreal Center
02:45PM 47.3500 -78.6667 312° West 280 322 20,000  Level Montreal Center
02:46PM 47.3833 -78.7667 296° West 280 322 20,000  Level Montreal Center
02:47PM 47.4333 -78.8500 312° West 280 322 20,000  Level Montreal Center
02:48PM 47.4833 -78.9500 307° West 280 322 20,000  Level Montreal Center
02:49PM 47.5333 -79.0500 307° West 280 322 20,000  Level Montreal Center
02:50PM 47.5833 -79.1333 312° West 280 322 20,000  Level Montreal Center
02:51PM 47.6167 -79.2333 296° West 280 322 20,000  Level Montreal Center
02:52PM 47.6667 -79.3333 307° West 280 322 20,000  Level Montreal Center
02:53PM 47.7167 -79.4167 312° West 290 334 20,000  Level Montreal Center
02:54PM 47.7667 -79.5167 307° West 290 334 20,000  Level Montreal Center
02:55PM 47.8167 -79.6167 307° West 280 322 20,000  Level Montreal Center
02:56PM 47.8667 -79.7167 307° West 290 334 20,000  Level Montreal Center
02:57PM 47.9167 -79.8000 312° West 280 322 20,000  Level Montreal Center
02:58PM 47.9500 -79.9000 296° West 290 334 20,000  Level Montreal Center
02:59PM 48.0000 -80.0167 303° West 290 334 20,000  Level Montreal Center
03:00PM 48.0500 -80.0833 318° Northwest 290 334 20,000  Level Montreal Center
03:01PM 48.1000 -80.2000 303° West 290 334 20,000  Level Montreal Center
03:02PM 48.1667 -80.3000 315° West 290 334 20,000  Level Montreal Center
03:03PM 48.1833 -80.3833 287° West 290 334 20,000  Level Montreal Center
03:04PM 48.2500 -80.4833 315° West 290 334 20,000  Level Montreal Center
03:05PM 48.3000 -80.5833 307° West 290 334 20,000  Level Montreal Center
03:06PM 48.3500 -80.7000 303° West 290 334 20,000  Level Montreal Center
03:07PM 48.4000 -80.7833 312° West 290 334 20,000  Level Montreal Center
03:08PM 48.4333 -80.8833 297° West 290 334 20,000  Level Montreal Center
03:09PM 48.4833 -80.9833 307° West 290 334 20,000  Level Montreal Center
03:10PM 48.5333 -81.1000 303° West 290 334 20,000  Level Montreal Center
03:11PM 48.5833 -81.1833 312° West 290 334 20,000  Level Montreal Center
03:12PM 48.6167 -81.2833 297° West 280 322 20,000  Level Montreal Center
03:13PM 48.6667 -81.3833 307° West 280 322 20,000  Level Montreal Center
03:14PM 48.7167 -81.4667 312° West 280 322 20,000  Level Montreal Center
03:15PM 48.7667 -81.5833 303° West 280 322 20,000  Level Montreal Center
03:16PM 48.8000 -81.6833 297° West 280 322 20,000  Level Montreal Center
03:17PM 48.8500 -81.7667 312° West 280 322 20,000  Level Montreal Center
03:18PM 48.9000 -81.8833 303° West 280 322 20,000  Level Montreal Center
03:19PM 48.9333 -81.9667 301° West 280 322 20,000  Level Montreal Center
03:20PM 48.9833 -82.0667 307° West 280 322 20,000  Level Montreal Center
03:21PM 49.0333 -82.1833 303° West 280 322 20,000  Level Montreal Center
03:22PM 49.0667 -82.2500 307° West 280 322 20,000  Level Montreal Center
03:23PM 49.1167 -82.3667 303° West 280 322 20,000  Level Montreal Center
03:24PM 49.1500 -82.4500 301° West 280 322 20,000 -540 Level Montreal Center
03:25PM 49.2167 -82.5667 311° West 290 334 19,000 -1,380 Descending Montreal Center
03:26PM 49.2500 -82.6667 297° West 300 345 17,300 -1,920 Descending Montreal Center
03:27PM 49.3000 -82.7833 303° West 300 345 15,200 -1,920 Descending Montreal Center
03:28PM 49.3500 -82.8667 313° West 290 334 13,500 -1,680 Descending Montreal Center
03:29PM 49.3833 -82.9667 297° West 290 334 11,900 -1,620 Descending Montreal Center
03:30PM 49.4333 -83.0833 303° West 280 322 10,300 -1,680 Descending Montreal Center
03:31PM 49.4833 -83.1667 313° West 270 311 8,600 -1,740 Descending Montreal Center
03:32PM 49.5167 -83.2833 294° West 260 299 6,900 -900 Descending Montreal Center
03:33PM 49.5500 -83.3667 302° West 250 288 6,900  Level Montreal Center
03:34PM 49.6000 -83.4500 313° West 250 288 6,900 -120 Level Montreal Center
03:35PM 49.6000 -83.5333 270° West 220 253 6,700 -720 Descending Montreal Center
03:36PM 49.6333 -83.5833 316° Northwest 150 173 5,500 -1,500 Descending Montreal Center
03:37PM 49.6500 -83.6667 287° West 140 161 3,700 -1,680 Descending Montreal Center
03:38PM 49.6667 -83.7167 297° West 150 173 2,200 -1,380 Descending Montreal Center
03:39PM 49.7000 -83.7167 360° North 130 150 1,000 -1,200 Descending Montreal Center
03:41PM 49.7000 -83.6833 291° West  Level FlightAware Approximate
03:48PM 49.7142 -83.6861 291° West  Level Estimated
03:49PM 49.7142 -83.6861 291° West  Level Estimated
03:50PM 49.7142 -83.6861 291° West  Level Estimated
03:51PM 49.7142 -83.6861 291° West  Level Estimated
03:52PM 49.7142 -83.6861 291° West  Level Estimated